Time;durP1;ratioP1;P1;durP2;ratioP2;P2;SDS_P1;SDS_P2;PMS_P1;PMS_P2;Temp;Humidity;BMP_temperature;BMP_pressure;BME280_temperature;BME280_humidity;BME280_pressure;Samples;Min_cycle;Max_cycle;Signal;HPM_P1;HPM_P2
2022/03/31 00:01:22;;;;;;;19.23;8.55;;;;;;;-3.38;56.82;99257.44;5035453;28;20056;-74
2022/03/31 00:03:49;;;;;;;23.75;9.38;;;;;;;-3.24;56.52;99293.88;5052910;28;20495;-75
2022/03/31 00:06:16;;;;;;;21.95;9.35;;;;;;;-3.21;57.00;99319.56;5053175;28;20061;-76
2022/03/31 00:08:43;;;;;;;25.80;10.60;;;;;;;-3.23;57.26;99307.53;5037764;28;20048;-77
2022/03/31 00:11:12;;;;;;;30.27;10.63;;;;;;;-3.26;56.88;99307.38;5057004;28;20049;-75
2022/03/31 00:13:41;;;;;;;21.17;9.15;;;;;;;-3.30;57.33;99298.69;5053649;28;20570;-76
2022/03/31 00:16:08;;;;;;;23.60;8.15;;;;;;;-3.53;57.53;99261.78;5053092;28;20560;-77
2022/03/31 00:18:35;;;;;;;24.77;9.63;;;;;;;-3.36;57.44;99303.47;5052445;28;20056;-76
2022/03/31 00:21:02;;;;;;;20.75;8.63;;;;;;;-3.36;58.01;99308.59;5053496;28;20099;-76
2022/03/31 00:23:29;;;;;;;20.42;8.30;;;;;;;-3.38;57.75;99310.19;5053719;28;20064;-77
2022/03/31 00:25:56;;;;;;;22.83;8.45;;;;;;;-3.40;57.93;99314.34;5052906;28;20114;-77
2022/03/31 00:28:26;;;;;;;23.30;8.85;;;;;;;-3.42;58.29;99323.59;5052869;28;20061;-76
2022/03/31 00:30:53;;;;;;;20.33;8.77;;;;;;;-3.42;58.22;99324.50;5034828;28;20053;-76
2022/03/31 00:33:20;;;;;;;22.67;8.88;;;;;;;-3.46;57.87;99312.38;5035063;28;20045;-75
2022/03/31 00:35:47;;;;;;;19.33;8.40;;;;;;;-3.54;58.26;99280.47;5034205;28;20150;-76
2022/03/31 00:38:14;;;;;;;20.15;8.07;;;;;;;-3.29;58.40;99310.66;5052931;28;20055;-75
2022/03/31 00:40:41;;;;;;;19.75;8.05;;;;;;;-3.28;58.62;99320.06;5052462;28;20530;-77
2022/03/31 00:43:18;;;;;;;20.40;8.23;;;;;;;-3.23;58.39;99330.50;5052696;28;20075;-77
2022/03/31 00:45:53;;;;;;;20.13;8.95;;;;;;;-3.25;58.67;99332.97;5052781;28;20059;-74
2022/03/31 00:48:20;;;;;;;25.38;8.95;;;;;;;-3.27;58.66;99329.47;5052525;28;20122;-75
2022/03/31 00:50:47;;;;;;;22.60;9.25;;;;;;;-3.28;58.67;99331.97;5052544;28;20107;-75
2022/03/31 00:53:16;;;;;;;19.95;8.02;;;;;;;-3.28;58.63;99321.75;5052465;28;20053;-77
2022/03/31 00:55:54;;;;;;;20.47;8.43;;;;;;;-4.15;59.09;99168.50;5052503;28;20077;-77
2022/03/31 00:58:22;;;;;;;21.17;8.25;;;;;;;-3.21;58.89;99337.44;5052380;28;20283;-76
2022/03/31 01:00:49;;;;;;;20.85;7.95;;;;;;;-3.22;59.19;99347.63;5054064;28;20512;-76
2022/03/31 01:03:17;;;;;;;20.10;8.15;;;;;;;-3.29;58.96;99323.44;5038795;28;20060;-74
2022/03/31 01:05:44;;;;;;;20.15;8.88;;;;;;;-3.58;59.13;99273.47;5055876;28;20045;-76
2022/03/31 01:08:11;;;;;;;20.17;8.85;;;;;;;-3.49;59.40;99289.22;5056431;28;20049;-75
2022/03/31 01:10:39;;;;;;;22.10;8.93;;;;;;;-3.29;59.32;99326.00;5056598;28;20049;-76
2022/03/31 01:13:07;;;;;;;21.33;8.43;;;;;;;-3.49;59.47;99296.88;5056833;28;20106;-77
2022/03/31 01:15:35;;;;;;;20.92;8.95;;;;;;;-3.54;59.40;99283.91;5056591;28;20095;-75
2022/03/31 01:18:03;;;;;;;24.05;9.35;;;;;;;-3.36;59.67;99339.25;5056581;28;20048;-77
2022/03/31 01:20:30;;;;;;;22.27;9.45;;;;;;;-3.28;59.78;99334.53;5057674;28;20141;-76
2022/03/31 01:22:57;;;;;;;22.15;9.45;;;;;;;-3.29;60.02;99343.88;5059405;28;20065;-76
2022/03/31 01:25:24;;;;;;;22.83;8.73;;;;;;;-3.33;60.08;99345.38;5059058;28;20057;-76
2022/03/31 01:27:51;;;;;;;25.27;8.68;;;;;;;-3.46;60.30;99319.13;5058517;28;20423;-75
2022/03/31 01:30:23;;;;;;;20.88;9.00;;;;;;;-3.36;60.04;99340.09;5060239;28;20071;-76
2022/03/31 01:32:52;;;;;;;19.52;8.98;;;;;;;-3.36;60.48;99336.69;5063568;28;20063;-74
2022/03/31 01:35:19;;;;;;;20.20;8.57;;;;;;;-3.38;60.50;99343.41;5064658;28;20081;-78
2022/03/31 01:37:47;;;;;;;21.58;9.27;;;;;;;-3.43;60.47;99324.41;5040366;28;20110;-77
2022/03/31 01:40:14;;;;;;;26.58;10.63;;;;;;;-3.48;60.43;99324.19;5057448;28;20052;-77
2022/03/31 01:42:43;;;;;;;23.60;10.90;;;;;;;-3.50;60.67;99334.31;5057154;28;20069;-77
2022/03/31 01:45:14;;;;;;;24.40;9.82;;;;;;;-3.75;60.89;99293.91;5038888;28;20048;-76
2022/03/31 01:47:42;;;;;;;22.33;10.10;;;;;;;-3.60;61.03;99329.53;5022881;28;20079;-78
2022/03/31 01:50:09;;;;;;;25.10;12.02;;;;;;;-3.65;61.12;99317.38;5022914;28;20049;-76
2022/03/31 01:52:38;;;;;;;29.65;11.82;;;;;;;-3.69;61.48;99318.00;5038313;28;20053;-77
2022/03/31 01:55:05;;;;;;;25.17;11.18;;;;;;;-3.74;61.48;99323.75;5056893;28;20060;-77
2022/03/31 01:57:33;;;;;;;27.50;11.25;;;;;;;-3.67;61.83;99337.69;5056456;28;20057;-76
2022/03/31 02:00:02;;;;;;;26.67;9.73;;;;;;;-3.69;61.79;99336.75;5060250;28;20107;-77
2022/03/31 02:02:39;;;;;;;23.83;9.05;;;;;;;-3.68;62.13;99330.81;5037939;28;20392;-75
2022/03/31 02:05:07;;;;;;;22.05;8.20;;;;;;;-3.88;61.86;99305.97;5055437;28;20053;-77
2022/03/31 02:07:36;;;;;;;20.55;8.73;;;;;;;-3.83;62.00;99327.47;5056165;28;20499;-77
2022/03/31 02:10:13;;;;;;;20.08;7.97;;;;;;;-3.88;62.41;99318.72;5057152;28;20107;-76
2022/03/31 02:12:41;;;;;;;18.15;7.90;;;;;;;-3.64;62.13;99342.94;5063057;28;20037;-75
2022/03/31 02:15:10;;;;;;;17.17;7.22;;;;;;;-3.68;62.31;99345.28;5080649;28;20036;-77
2022/03/31 02:17:37;;;;;;;20.30;8.02;;;;;;;-3.54;62.22;99349.41;5071667;28;20534;-75
2022/03/31 02:20:05;;;;;;;14.55;7.10;;;;;;;-3.77;62.29;99298.03;5058006;28;20056;-76
2022/03/31 02:22:32;;;;;;;18.40;7.32;;;;;;;-3.55;62.36;99340.88;5037758;28;20064;-75
2022/03/31 02:24:59;;;;;;;18.38;7.60;;;;;;;-3.53;62.56;99349.50;5054828;28;20049;-76
2022/03/31 02:27:26;;;;;;;29.98;7.93;;;;;;;-3.54;62.29;99363.06;5055118;28;20056;-76
2022/03/31 02:29:52;;;;;;;17.05;7.28;;;;;;;-3.67;62.65;99321.50;5054990;28;20110;-76
2022/03/31 02:32:19;;;;;;;16.83;7.53;;;;;;;-3.46;63.13;99363.47;5055177;28;20057;-76
2022/03/31 02:34:46;;;;;;;18.35;8.00;;;;;;;-3.41;62.82;99366.25;5054588;28;20049;-77
2022/03/31 02:37:13;;;;;;;16.65;7.72;;;;;;;-3.43;63.08;99363.59;5054640;28;20136;-76
2022/03/31 02:39:40;;;;;;;21.45;7.72;;;;;;;-3.39;63.07;99364.66;5054511;28;20091;-77
2022/03/31 02:42:07;;;;;;;20.75;7.50;;;;;;;-3.36;62.83;99364.78;5054007;28;20057;-75
2022/03/31 02:44:34;;;;;;;19.42;7.60;;;;;;;-3.41;62.98;99344.13;5054326;28;20118;-75
2022/03/31 02:47:01;;;;;;;14.10;6.65;;;;;;;-3.35;62.84;99356.34;5054614;28;20049;-76
2022/03/31 02:49:28;;;;;;;18.40;7.18;;;;;;;-3.40;62.94;99348.44;5054684;28;20070;-76
2022/03/31 02:51:55;;;;;;;16.85;7.05;;;;;;;-3.32;62.99;99359.03;5054377;28;20061;-74
2022/03/31 02:57:11;;;;;;;24.00;8.45;;;;;;;-3.26;63.10;99354.22;5055206;28;20109;-76
2022/03/31 02:59:38;;;;;;;18.60;7.57;;;;;;;-3.45;63.22;99339.66;5036543;28;20544;-76
2022/03/31 03:02:06;;;;;;;18.10;8.73;;;;;;;-3.41;62.79;99333.03;5036149;28;20087;-77
2022/03/31 03:04:34;;;;;;;21.77;8.50;;;;;;;-3.27;63.04;99362.69;5054501;28;20063;-77
2022/03/31 03:07:01;;;;;;;27.98;9.43;;;;;;;-3.20;63.03;99376.66;5054033;28;20585;-75
2022/03/31 03:09:28;;;;;;;25.27;9.25;;;;;;;-3.29;62.55;99351.53;5053926;28;20453;-77
2022/03/31 03:11:55;;;;;;;32.30;10.23;;;;;;;-3.14;62.43;99388.06;5054041;28;20048;-76
2022/03/31 03:14:22;;;;;;;24.02;8.55;;;;;;;-3.12;62.47;99381.34;5053893;28;20053;-76
2022/03/31 03:16:49;;;;;;;27.10;10.25;;;;;;;-3.11;62.27;99382.22;5053869;28;20502;-76
2022/03/31 03:19:17;;;;;;;32.47;10.63;;;;;;;-2.99;61.99;99390.50;5036315;28;20106;-75
2022/03/31 03:21:44;;;;;;;31.55;10.70;;;;;;;-2.86;61.90;99386.88;5053361;28;20053;-77
2022/03/31 03:24:11;;;;;;;23.35;10.30;;;;;;;-2.76;61.58;99386.50;5053263;28;20520;-77
2022/03/31 03:26:38;;;;;;;23.85;9.60;;;;;;;-2.83;61.32;99364.00;5053833;28;20060;-77
2022/03/31 03:29:05;;;;;;;22.42;9.27;;;;;;;-2.71;61.57;99361.16;5035849;28;20074;-77
2022/03/31 03:31:32;;;;;;;18.70;7.35;;;;;;;-2.52;61.26;99380.81;5053755;28;20502;-77
2022/03/31 03:33:59;;;;;;;16.48;6.88;;;;;;;-2.36;61.13;99388.41;5019564;28;20049;-76
2022/03/31 03:36:27;;;;;;;17.10;7.45;;;;;;;-2.33;61.00;99370.66;5053591;28;20519;-75
2022/03/31 03:38:54;;;;;;;16.05;7.22;;;;;;;-2.23;60.92;99379.63;5053350;28;20091;-76
2022/03/31 03:41:21;;;;;;;18.65;7.15;;;;;;;-2.09;60.62;99390.50;5053488;28;20114;-77
2022/03/31 03:43:48;;;;;;;17.60;6.82;;;;;;;-2.25;60.53;99340.31;5053083;28;20044;-77
2022/03/31 03:46:16;;;;;;;22.08;8.07;;;;;;;-1.93;60.36;99397.22;5052800;28;20435;-78
2022/03/31 03:48:43;;;;;;;16.33;7.95;;;;;;;-1.93;60.25;99392.97;5035432;28;20118;-75
2022/03/31 03:51:10;;;;;;;14.73;7.15;;;;;;;-1.89;60.04;99394.00;5053539;28;20075;-76
2022/03/31 03:53:37;;;;;;;17.63;8.02;;;;;;;-1.94;60.23;99401.44;5035428;28;20064;-77
2022/03/31 03:56:05;;;;;;;19.23;7.93;;;;;;;-1.74;59.69;99406.59;5035327;28;20497;-76
2022/03/31 03:58:32;;;;;;;23.20;8.13;;;;;;;-1.71;59.87;99399.91;5053312;28;20418;-77
2022/03/31 04:00:58;;;;;;;18.40;8.55;;;;;;;-1.80;59.67;99376.47;5035396;28;20051;-77
2022/03/31 04:03:26;;;;;;;22.90;10.02;;;;;;;-1.87;59.49;99356.53;5035373;28;20399;-78
2022/03/31 04:05:54;;;;;;;21.45;9.35;;;;;;;-1.70;59.55;99367.50;5002421;28;20056;-78
2022/03/31 04:08:21;;;;;;;18.70;9.13;;;;;;;-1.71;59.17;99376.00;5053152;28;20058;-77
2022/03/31 04:10:48;;;;;;;20.38;8.63;;;;;;;-1.42;58.87;99399.44;5052836;28;20147;-76
2022/03/31 04:13:15;;;;;;;23.65;9.13;;;;;;;-1.38;58.68;99385.97;5052877;28;20056;-78
2022/03/31 04:15:42;;;;;;;25.83;10.15;;;;;;;-1.35;58.32;99365.63;5054428;28;20048;-76
2022/03/31 04:18:09;;;;;;;27.65;10.13;;;;;;;-1.11;58.17;99382.03;5035600;28;20053;-78
2022/03/31 04:20:38;;;;;;;23.67;10.63;;;;;;;-1.07;57.88;99360.84;5053537;28;20144;-77
2022/03/31 04:23:06;;;;;;;30.15;12.77;;;;;;;-0.91;57.16;99361.47;5053778;28;20061;-79
2022/03/31 04:25:33;;;;;;;25.65;10.68;;;;;;;-0.83;56.90;99363.53;5053884;28;20118;-76
2022/03/31 04:28:00;;;;;;;25.73;10.48;;;;;;;-0.98;57.22;99355.22;5037019;28;20110;-77
2022/03/31 04:30:26;;;;;;;25.23;9.70;;;;;;;-0.97;56.67;99362.06;5036207;28;20080;-77
2022/03/31 04:32:54;;;;;;;21.52;9.45;;;;;;;-0.53;56.89;99424.59;5018518;28;20114;-77
2022/03/31 04:35:21;;;;;;;21.90;9.27;;;;;;;-0.42;56.19;99407.06;5035095;28;20495;-78
2022/03/31 04:37:47;;;;;;;23.15;9.75;;;;;;;-0.26;56.12;99417.13;5053460;28;20072;-76
2022/03/31 04:40:15;;;;;;;19.70;9.57;;;;;;;-0.20;55.88;99408.75;5054724;28;20056;-77
2022/03/31 04:42:42;;;;;;;19.08;8.82;;;;;;;-0.26;55.81;99394.03;5037522;28;20448;-76
2022/03/31 04:45:09;;;;;;;18.98;10.02;;;;;;;-0.10;56.06;99415.16;5067555;28;20036;-76
2022/03/31 04:47:38;;;;;;;18.67;9.02;;;;;;;-0.14;55.54;99367.06;5077102;28;20099;-76
2022/03/31 04:50:14;;;;;;;19.73;8.82;;;;;;;0.29;55.26;99417.47;5060331;28;20060;-76
2022/03/31 04:52:42;;;;;;;;;;;;;;;0.20;55.53;99413.75;5054060;28;20079;-77
2022/03/31 04:55:09;;;;;;;19.55;8.32;;;;;;;0.47;54.88;99422.41;5053628;28;20406;-78
2022/03/31 04:57:36;;;;;;;22.13;8.48;;;;;;;0.73;54.36;99408.81;5054032;28;20434;-77
2022/03/31 05:00:05;;;;;;;22.85;9.45;;;;;;;1.09;53.77;99410.03;5034473;28;20045;-77
2022/03/31 05:02:32;;;;;;;15.77;8.10;;;;;;;1.40;53.16;99417.06;5052088;28;20080;-77
2022/03/31 05:04:59;;;;;;;16.92;8.93;;;;;;;1.64;52.88;99420.44;5052128;28;20049;-77
2022/03/31 05:07:26;;;;;;;17.55;7.55;;;;;;;1.76;52.59;99399.31;5053519;28;20076;-78
2022/03/31 05:09:53;;;;;;;13.32;7.28;;;;;;;1.85;52.22;99419.38;5052042;28;20567;-78
2022/03/31 05:12:20;;;;;;;21.30;8.25;;;;;;;1.94;52.47;99413.63;5053716;28;20061;-76
2022/03/31 05:14:47;;;;;;;17.85;6.60;;;;;;;2.18;52.17;99423.81;5034865;28;20417;-79
2022/03/31 05:17:14;;;;;;;18.88;7.90;;;;;;;2.15;51.88;99411.69;5052456;28;20144;-77
2022/03/31 05:19:41;;;;;;;18.38;7.47;;;;;;;2.25;52.08;99413.69;5052805;28;20053;-78
2022/03/31 05:22:08;;;;;;;18.38;7.85;;;;;;;2.74;51.16;99409.06;5051997;28;20076;-78
2022/03/31 05:24:35;;;;;;;16.58;6.95;;;;;;;3.17;50.53;99412.78;5052384;28;20395;-78
2022/03/31 05:27:02;;;;;;;18.05;7.20;;;;;;;3.48;49.43;99403.22;5051999;28;20056;-79
2022/03/31 05:29:29;;;;;;;17.77;8.35;;;;;;;3.39;49.34;99365.16;5052424;28;20045;-78
2022/03/31 05:31:57;;;;;;;19.15;7.97;;;;;;;3.81;48.93;99389.38;5050714;28;20048;-76
2022/03/31 05:34:24;;;;;;;14.18;7.18;;;;;;;4.08;48.92;99392.56;5051426;28;20426;-78
2022/03/31 05:36:51;;;;;;;16.73;7.43;;;;;;;4.32;47.64;99396.50;5051901;28;20079;-77
2022/03/31 05:39:19;;;;;;;18.42;8.07;;;;;;;4.19;47.95;99395.38;5052135;28;20107;-78
2022/03/31 05:41:46;;;;;;;15.88;7.20;;;;;;;4.25;47.63;99413.63;5051785;28;20049;-77
2022/03/31 05:44:13;;;;;;;17.80;8.10;;;;;;;4.26;47.35;99397.28;5051598;28;20076;-75
2022/03/31 05:46:40;;;;;;;17.85;7.63;;;;;;;4.38;47.89;99416.47;5052889;28;20064;-77
2022/03/31 05:49:07;;;;;;;17.63;7.25;;;;;;;4.51;47.38;99408.97;5055315;28;20049;-77
2022/03/31 05:51:34;;;;;;;17.45;7.20;;;;;;;4.70;47.03;99407.63;5037792;28;20060;-76
2022/03/31 05:54:02;;;;;;;14.50;7.00;;;;;;;5.07;46.06;99421.28;5055686;28;20049;-76
2022/03/31 05:56:28;;;;;;;15.32;7.47;;;;;;;5.25;45.97;99401.75;5050382;28;20054;-78
2022/03/31 05:58:56;;;;;;;15.10;5.88;;;;;;;5.36;45.15;99418.34;5011927;28;20080;-78
2022/03/31 06:01:22;;;;;;;12.73;5.47;;;;;;;5.36;45.67;99412.31;5044383;28;20061;-76
2022/03/31 06:03:49;;;;;;;10.90;5.68;;;;;;;5.52;45.26;99430.69;5044296;28;20075;-77
2022/03/31 06:06:16;;;;;;;8.65;4.80;;;;;;;5.52;45.34;99425.53;5044821;28;20045;-76
2022/03/31 06:08:43;;;;;;;9.20;4.53;;;;;;;5.51;45.36;99430.69;5044855;28;20081;-78
2022/03/31 06:11:10;;;;;;;9.30;4.60;;;;;;;5.38;46.00;99388.16;5045758;28;20139;-79
2022/03/31 06:13:40;;;;;;;11.52;4.43;;;;;;;5.83;45.62;99420.84;5036177;28;20349;-79
2022/03/31 06:16:07;;;;;;;11.32;4.75;;;;;;;5.73;45.60;99431.91;5037617;28;20520;-77
2022/03/31 06:18:34;;;;;;;8.38;4.43;;;;;;;5.58;45.72;99432.53;5016290;28;20051;-77
2022/03/31 06:21:02;;;;;;;9.48;4.80;;;;;;;5.23;46.72;99437.13;5041920;28;20054;-78
2022/03/31 06:23:29;;;;;;;7.88;4.45;;;;;;;5.16;47.07;99437.84;5042171;28;20464;-76
2022/03/31 06:25:59;;;;;;;;;;;;;;;4.99;47.79;99434.91;5040270;28;20099;-78
2022/03/31 06:28:28;;;;;;;9.57;4.45;;;;;;;4.99;47.76;99427.16;5038600;28;20051;-77
2022/03/31 06:30:55;;;;;;;7.03;4.20;;;;;;;5.03;47.31;99453.13;5048071;28;20060;-78
2022/03/31 06:33:28;;;;;;;9.65;4.35;;;;;;;4.87;47.30;99444.19;5045792;28;20041;-78
2022/03/31 06:35:56;;;;;;;7.40;3.85;;;;;;;4.80;47.42;99463.06;5047705;28;20538;-77
2022/03/31 06:38:24;;;;;;;13.52;5.82;;;;;;;4.97;47.98;99454.72;5043860;28;20474;-78
2022/03/31 06:41:07;;;;;;;11.98;4.38;;;;;;;4.89;47.56;99467.53;5041924;28;20072;-77
2022/03/31 06:43:34;;;;;;;9.85;3.92;;;;;;;4.75;47.28;99427.56;5043878;28;20400;-79
2022/03/31 06:46:02;;;;;;;8.30;4.63;;;;;;;4.99;47.19;99459.13;5044290;28;20042;-77
2022/03/31 06:48:30;;;;;;;6.10;4.00;;;;;;;4.90;47.08;99454.63;5048170;28;20129;-77
2022/03/31 06:50:58;;;;;;;6.50;4.13;;;;;;;4.75;47.77;99468.97;5043574;28;20106;-79
2022/03/31 06:53:26;;;;;;;8.38;4.40;;;;;;;4.74;47.83;99465.50;5045291;28;20450;-79
2022/03/31 06:55:53;;;;;;;8.98;4.63;;;;;;;5.01;47.70;99472.97;5039796;28;20049;-77
2022/03/31 06:58:27;;;;;;;12.23;4.45;;;;;;;5.15;46.65;99457.69;5038697;28;20065;-77
2022/03/31 07:00:54;;;;;;;7.82;4.40;;;;;;;5.16;46.77;99453.38;5040409;28;20057;-79
2022/03/31 07:03:23;;;;;;;7.28;3.70;;;;;;;5.08;46.37;99453.25;5044100;28;20057;-78
2022/03/31 07:05:55;;;;;;;9.52;4.40;;;;;;;4.81;48.05;99457.03;5042053;28;20467;-78
2022/03/31 07:08:22;;;;;;;8.93;4.05;;;;;;;4.93;47.40;99446.91;5045649;28;20053;-78
2022/03/31 07:10:50;;;;;;;12.32;4.88;;;;;;;5.16;46.76;99458.53;5036967;28;20510;-77
2022/03/31 07:13:18;;;;;;;9.95;4.88;;;;;;;5.31;46.24;99458.81;5054469;28;20084;-78
2022/03/31 07:15:45;;;;;;;10.30;4.95;;;;;;;5.26;46.33;99442.34;5055524;28;20118;-77
2022/03/31 07:18:12;;;;;;;9.07;4.60;;;;;;;5.46;46.40;99442.69;5047655;28;20498;-76
2022/03/31 07:20:39;;;;;;;12.88;5.18;;;;;;;5.52;46.05;99450.56;5061754;28;20079;-78
2022/03/31 07:23:09;;;;;;;12.45;5.30;;;;;;;5.58;45.98;99445.50;5068266;28;20064;-77
2022/03/31 07:25:37;;;;;;;11.70;5.60;;;;;;;5.72;45.41;99427.56;5053769;28;20067;-79
2022/03/31 07:28:05;;;;;;;7.78;4.70;;;;;;;5.82;45.67;99437.22;5053060;28;20051;-80
2022/03/31 07:30:32;;;;;;;12.82;5.00;;;;;;;5.38;45.65;99406.31;5046747;28;20047;-79
2022/03/31 07:33:01;;;;;;;9.18;5.40;;;;;;;5.59;44.99;99392.81;5008872;28;20108;-77
2022/03/31 07:35:30;;;;;;;10.00;5.72;;;;;;;6.03;45.18;99433.28;5043569;28;20049;-78
2022/03/31 07:37:58;;;;;;;9.55;5.50;;;;;;;6.09;45.30;99454.97;5042800;28;20045;-81
2022/03/31 07:40:26;;;;;;;12.70;5.50;;;;;;;6.38;44.84;99451.91;5025386;28;20053;-78
2022/03/31 07:42:54;;;;;;;9.70;5.18;;;;;;;6.42;44.74;99451.09;5055013;28;20060;-77
2022/03/31 07:45:22;;;;;;;11.63;6.07;;;;;;;6.50;43.85;99446.03;5053054;28;20084;-76
2022/03/31 07:47:49;;;;;;;11.18;5.32;;;;;;;6.53;43.90;99459.03;5053274;28;20049;-78
2022/03/31 07:50:18;;;;;;;10.77;4.82;;;;;;;6.54;43.80;99455.59;5052860;28;20057;-78
2022/03/31 07:52:49;;;;;;;11.13;4.97;;;;;;;6.60;43.54;99419.31;5053310;28;20056;-79
2022/03/31 07:55:17;;;;;;;7.53;4.68;;;;;;;6.93;43.57;99463.00;5052900;28;20053;-77
2022/03/31 07:57:45;;;;;;;7.00;4.75;;;;;;;6.61;43.94;99448.78;5053172;28;20055;-77
2022/03/31 08:00:13;;;;;;;10.57;4.55;;;;;;;6.40;43.73;99460.59;5035727;28;20057;-79
2022/03/31 08:02:42;;;;;;;9.90;4.97;;;;;;;6.38;44.24;99457.09;5053045;28;20045;-77
2022/03/31 08:05:17;;;;;;;9.05;5.03;;;;;;;6.72;43.02;99441.97;5052443;28;20052;-81
2022/03/31 08:07:47;;;;;;;15.15;6.55;;;;;;;6.78;42.46;99390.13;5052265;28;20061;-78
2022/03/31 08:10:14;;;;;;;9.27;4.40;;;;;;;7.18;42.06;99463.25;5051957;28;20053;-78
2022/03/31 08:12:42;;;;;;;9.25;5.15;;;;;;;7.18;42.18;99453.75;5052817;28;20052;-78
2022/03/31 08:15:10;;;;;;;6.72;4.25;;;;;;;7.30;41.91;99447.81;5052924;28;20143;-77
2022/03/31 08:17:38;;;;;;;9.57;4.65;;;;;;;7.50;41.15;99429.78;5051903;28;20056;-77
2022/03/31 08:20:10;;;;;;;7.72;4.38;;;;;;;7.73;40.64;99431.72;5052238;28;20048;-78
2022/03/31 08:22:38;;;;;;;8.20;4.75;;;;;;;7.64;40.75;99429.94;5051537;28;20056;-78
2022/03/31 08:25:07;;;;;;;10.30;4.75;;;;;;;6.93;40.89;99338.38;5051937;28;20045;-77
2022/03/31 08:27:35;;;;;;;9.82;4.82;;;;;;;7.41;41.10;99447.06;5052424;28;20500;-78
2022/03/31 08:30:05;;;;;;;8.27;4.03;;;;;;;7.18;40.80;99426.91;5052546;28;20065;-79
2022/03/31 08:32:35;;;;;;;9.60;4.18;;;;;;;6.97;41.62;99453.53;5018580;28;20084;-77
2022/03/31 08:35:03;;;;;;;6.53;4.57;;;;;;;6.67;41.78;99404.72;5035211;28;20108;-78
2022/03/31 08:37:35;;;;;;;11.93;5.15;;;;;;;6.69;42.47;99428.94;5052981;28;20115;-79
2022/03/31 08:40:03;;;;;;;10.02;4.50;;;;;;;6.49;42.20;99403.63;5052823;28;20060;-78
2022/03/31 08:42:31;;;;;;;8.52;4.07;;;;;;;6.39;42.32;99400.88;5052980;28;20052;-79
2022/03/31 08:44:59;;;;;;;9.68;4.35;;;;;;;6.70;41.98;99443.69;5052598;28;20061;-79
2022/03/31 08:47:26;;;;;;;9.52;4.45;;;;;;;6.85;42.01;99443.00;5018807;28;20083;-79
2022/03/31 08:50:14;;;;;;;9.13;4.07;;;;;;;6.78;41.55;99423.03;5052774;28;20418;-79
2022/03/31 08:52:42;;;;;;;20.02;4.72;;;;;;;6.65;41.62;99417.69;5052993;28;20111;-80
2022/03/31 08:55:11;;;;;;;11.30;4.07;;;;;;;6.73;41.08;99412.56;5052547;28;20060;-77
2022/03/31 08:57:48;;;;;;;11.70;4.65;;;;;;;6.71;41.41;99432.44;5034963;28;20049;-77
2022/03/31 09:00:17;;;;;;;8.45;3.95;;;;;;;6.73;41.08;99426.44;5052738;28;20071;-78
2022/03/31 09:02:57;;;;;;;8.35;4.07;;;;;;;6.98;40.90;99435.34;5052448;28;20144;-79
2022/03/31 09:05:25;;;;;;;23.10;5.50;;;;;;;6.67;40.90;99378.78;5052269;28;20392;-80
2022/03/31 09:08:00;;;;;;;30.48;5.18;;;;;;;6.95;40.85;99418.88;5051434;28;20051;-79
2022/03/31 09:10:32;;;;;;;9.45;4.10;;;;;;;7.15;40.24;99430.34;5034655;28;20049;-78
2022/03/31 09:13:03;;;;;;;7.88;3.78;;;;;;;6.86;40.74;99421.34;5052209;28;20052;-77
2022/03/31 09:15:40;;;;;;;4.75;3.40;;;;;;;6.64;40.00;99409.84;5052390;28;20060;-77
2022/03/31 09:18:07;;;;;;;10.85;3.97;;;;;;;6.84;39.95;99408.38;5034953;28;20049;-79
2022/03/31 09:20:36;;;;;;;7.05;3.63;;;;;;;6.92;39.91;99406.72;5034850;28;20064;-77
2022/03/31 09:23:04;;;;;;;9.77;3.55;;;;;;;7.04;39.69;99408.59;5056432;28;20061;-78
2022/03/31 09:25:32;;;;;;;5.43;3.05;;;;;;;7.28;39.28;99414.88;5057563;28;20507;-78
2022/03/31 09:28:10;;;;;;;4.90;3.58;;;;;;;6.79;39.26;99417.81;5056875;28;20568;-79
2022/03/31 09:30:46;;;;;;;11.68;3.80;;;;;;;6.85;39.96;99410.09;5055866;28;20056;-80
2022/03/31 09:33:48;;;;;;;7.30;3.72;;;;;;;6.81;38.96;99407.47;5037461;28;20607;-81
2022/03/31 09:36:18;;;;;;;6.15;3.10;;;;;;;6.34;39.85;99367.97;5021411;28;20467;-79
2022/03/31 09:38:58;;;;;;;6.85;3.03;;;;;;;6.33;40.04;99402.56;5056014;28;20052;-77
2022/03/31 09:41:35;;;;;;;6.40;3.58;;;;;;;6.31;40.04;99400.81;5038937;28;20071;-79
2022/03/31 09:44:08;;;;;;;8.63;3.15;;;;;;;6.19;39.39;99385.94;5056322;28;20076;-76
2022/03/31 09:46:38;;;;;;;8.20;3.50;;;;;;;6.13;39.80;99393.63;5057280;28;20494;-79
2022/03/31 09:49:24;;;;;;;6.93;3.60;;;;;;;6.05;40.17;99387.50;5057997;28;20087;-79
2022/03/31 09:51:54;;;;;;;7.82;3.60;;;;;;;6.43;40.05;99402.69;5063071;28;20053;-77
2022/03/31 09:54:25;;;;;;;8.05;3.70;;;;;;;6.70;39.62;99396.97;5078701;28;20060;-78
2022/03/31 09:56:53;;;;;;;11.70;3.85;;;;;;;6.74;39.35;99398.75;5053729;28;20056;-76
2022/03/31 09:59:20;;;;;;;8.07;3.78;;;;;;;6.76;39.21;99369.34;5041280;28;20048;-78
2022/03/31 10:01:52;;;;;;;9.95;3.95;;;;;;;6.95;38.71;99352.22;5055152;28;20305;-79
2022/03/31 10:04:21;;;;;;;8.75;3.42;;;;;;;6.57;38.21;99272.25;5049564;28;20414;-78
2022/03/31 10:06:56;;;;;;;5.95;3.50;;;;;;;6.75;39.24;99388.38;5046231;28;20045;-79
2022/03/31 10:09:24;;;;;;;7.20;3.38;;;;;;;6.38;40.14;99384.47;5048836;28;20063;-78
2022/03/31 10:12:24;;;;;;;5.05;3.08;;;;;;;5.71;41.04;99385.22;5046625;28;20041;-77
2022/03/31 10:15:01;;;;;;;8.45;3.47;;;;;;;5.22;42.44;99393.91;5024840;28;20040;-77
2022/03/31 10:17:31;;;;;;;5.10;3.40;;;;;;;5.25;42.97;99392.28;5027879;28;20049;-78
2022/03/31 10:20:16;;;;;;;8.57;3.28;;;;;;;4.96;42.22;99342.56;5026502;28;20130;-78
2022/03/31 10:25:41;;;;;;;5.22;3.13;;;;;;;5.31;42.05;99350.94;5017554;28;20045;-78
2022/03/31 10:28:20;;;;;;;5.60;3.67;;;;;;;5.58;42.48;99378.13;5016943;28;20041;-77
2022/03/31 10:30:55;;;;;;;8.32;3.60;;;;;;;5.72;41.87;99384.41;5035913;28;20099;-81
2022/03/31 10:33:37;;;;;;;7.82;3.28;;;;;;;5.50;42.41;99320.13;5052796;28;20611;-79
2022/03/31 10:36:14;;;;;;;11.38;4.05;;;;;;;5.78;42.11;99398.28;5054372;28;20414;-78
2022/03/31 10:38:57;;;;;;;10.50;4.40;;;;;;;5.18;42.50;99348.97;5055584;28;20068;-81
2022/03/31 10:41:44;;;;;;;8.60;3.47;;;;;;;4.84;43.92;99371.69;5036629;28;20502;-78
2022/03/31 10:44:10;;;;;;;9.35;3.80;;;;;;;4.92;44.82;99383.03;5054894;28;20147;-80
2022/03/31 10:46:40;;;;;;;6.53;3.88;;;;;;;5.01;44.21;99379.78;5037609;28;20049;-78
2022/03/31 10:49:20;;;;;;;11.88;4.13;;;;;;;4.81;44.61;99391.47;5054368;28;20144;-78
2022/03/31 10:51:48;;;;;;;11.27;4.15;;;;;;;4.58;45.60;99373.78;5054453;28;20100;-78
2022/03/31 10:54:30;;;;;;;5.95;3.80;;;;;;;4.44;46.29;99380.41;5054241;28;20084;-76
2022/03/31 10:57:17;;;;;;;11.43;4.55;;;;;;;4.56;46.19;99362.53;5036457;28;20048;-79
2022/03/31 10:59:47;;;;;;;10.15;4.40;;;;;;;5.12;45.68;99379.97;5054171;28;20045;-77
2022/03/31 11:02:20;;;;;;;7.75;4.20;;;;;;;5.27;45.17;99353.44;5053831;28;20404;-77
2022/03/31 11:04:57;;;;;;;9.25;3.78;;;;;;;5.43;44.64;99370.97;5054487;28;20060;-78
2022/03/31 11:07:26;;;;;;;7.38;3.63;;;;;;;5.37;44.32;99351.88;5053940;28;20072;-78
2022/03/31 11:10:03;;;;;;;5.85;3.25;;;;;;;5.21;44.84;99371.47;5054433;28;20080;-78
2022/03/31 11:12:30;;;;;;;7.10;3.88;;;;;;;5.26;44.98;99343.94;5054075;28;20053;-77
2022/03/31 11:15:00;;;;;;;5.70;3.85;;;;;;;5.35;44.55;99344.06;5053882;28;20155;-78
2022/03/31 11:17:30;;;;;;;8.82;4.30;;;;;;;5.13;43.87;99304.88;5053784;28;20399;-76
2022/03/31 11:20:03;;;;;;;6.95;3.63;;;;;;;5.36;44.17;99357.91;5054051;28;20494;-80
2022/03/31 11:22:30;;;;;;;12.38;3.78;;;;;;;5.09;45.57;99346.22;5053932;28;20677;-78
2022/03/31 11:25:11;;;;;;;10.10;4.00;;;;;;;5.10;44.96;99343.69;5053949;28;20411;-78
2022/03/31 11:27:41;;;;;;;8.52;4.25;;;;;;;5.12;45.41;99323.00;5053923;28;20080;-78
2022/03/31 11:30:14;;;;;;;9.65;4.20;;;;;;;5.29;44.99;99334.50;5054762;28;20059;-78
2022/03/31 11:32:43;;;;;;;10.25;3.92;;;;;;;5.27;45.05;99353.44;5054646;28;20063;-77
2022/03/31 11:35:19;;;;;;;8.25;4.10;;;;;;;4.83;45.57;99331.13;5054158;28;20049;-82
2022/03/31 11:37:50;;;;;;;9.57;4.22;;;;;;;4.02;46.66;99226.16;5054071;28;20494;-84
2022/03/31 11:40:26;;;;;;;8.88;4.25;;;;;;;5.16;46.12;99337.72;5036256;28;20059;-79
2022/03/31 11:42:57;;;;;;;10.30;4.40;;;;;;;5.56;45.62;99348.72;5021002;28;20156;-76
2022/03/31 11:45:55;;;;;;;9.05;4.30;;;;;;;4.74;46.09;99204.16;5054719;28;20503;-78
2022/03/31 11:49:23;;;;;;;8.10;4.35;;;;;;;4.95;47.04;99270.03;5029784;28;20056;-82